Time;durP1;ratioP1;P1;durP2;ratioP2;P2;SDS_P1;SDS_P2;PMS_P1;PMS_P2;Temp;Humidity;BMP_temperature;BMP_pressure;BME280_temperature;BME280_humidity;BME280_pressure;Samples;Min_cycle;Max_cycle;Signal;HPM_P1;HPM_P2
2023/01/20 00:01:26;;;;;;;2.00;1.40;;;;;;;;;;4392237;32;316818;-85
2023/01/20 00:03:54;;;;;;;3.37;1.70;;;;;;;;;;4401347;32;317176;-84
2023/01/20 00:06:23;;;;;;;6.37;2.93;;;;;;;;;;4391548;32;316461;-85
2023/01/20 00:08:51;;;;;;;9.90;3.70;;;;;;;;;;4402063;32;317765;-85
2023/01/20 00:11:18;;;;;;;3.80;1.87;;;;;;;;;;4392883;32;317252;-85
2023/01/20 00:13:45;;;;;;;4.37;1.53;;;;;;;;;;4401200;32;316553;-85
2023/01/20 00:16:12;;;;;;;1.30;1.00;;;;;;;;;;4390123;32;340005;-85
2023/01/20 00:18:40;;;;;;;2.43;1.20;;;;;;;;;;4402193;32;317412;-85
2023/01/20 00:21:09;;;;;;;3.57;0.90;;;;;;;;;;4401568;32;317221;-84
2023/01/20 00:23:38;;;;;;;2.90;1.37;;;;;;;;;;4388623;32;416447;-84
2023/01/20 00:26:05;;;;;;;1.87;1.10;;;;;;;;;;4402517;32;317207;-84
2023/01/20 00:28:33;;;;;;;1.50;0.90;;;;;;;;;;4391123;32;317218;-84
2023/01/20 00:31:10;;;;;;;3.87;1.40;;;;;;;;;;4402502;32;317239;-84
2023/01/20 00:33:36;;;;;;;4.07;1.47;;;;;;;;;;4389426;32;416080;-84
2023/01/20 00:36:03;;;;;;;2.73;1.30;;;;;;;;;;4402508;32;317115;-83
2023/01/20 00:38:30;;;;;;;2.17;1.00;;;;;;;;;;4392109;32;317233;-84
2023/01/20 00:40:58;;;;;;;1.23;0.83;;;;;;;;;;4401326;32;317317;-84
2023/01/20 00:43:25;;;;;;;4.93;1.20;;;;;;;;;;4391183;32;317230;-84
2023/01/20 00:45:52;;;;;;;4.03;1.00;;;;;;;;;;4401287;32;317503;-84
2023/01/20 00:48:19;;;;;;;3.27;1.20;;;;;;;;;;4391387;32;347717;-85
2023/01/20 00:50:45;;;;;;;1.10;1.00;;;;;;;;;;4402175;32;317246;-84
2023/01/20 00:53:12;;;;;;;2.00;1.10;;;;;;;;;;4391149;32;316456;-85
2023/01/20 00:55:39;;;;;;;2.47;1.13;;;;;;;;;;4400991;32;317421;-84
2023/01/20 00:58:07;;;;;;;3.83;1.13;;;;;;;;;;4401144;32;317222;-84
2023/01/20 01:00:34;;;;;;;5.27;1.97;;;;;;;;;;4388428;32;415302;-85
2023/01/20 01:03:01;;;;;;;3.47;1.80;;;;;;;;;;4401000;32;317210;-84
2023/01/20 01:05:28;;;;;;;2.60;1.67;;;;;;;;;;4390988;32;317153;-85
2023/01/20 01:07:55;;;;;;;8.17;1.77;;;;;;;;;;4400910;32;322609;-85
2023/01/20 01:10:22;;;;;;;9.10;1.60;;;;;;;;;;4392096;32;317162;-85
2023/01/20 01:12:48;;;;;;;4.13;1.40;;;;;;;;;;4402634;32;317165;-85
2023/01/20 01:15:17;;;;;;;4.87;1.73;;;;;;;;;;4394743;32;317251;-85
2023/01/20 01:17:44;;;;;;;2.13;1.23;;;;;;;;;;4404918;32;334274;-84
2023/01/20 01:20:12;;;;;;;4.43;1.70;;;;;;;;;;4392549;32;343102;-85
2023/01/20 01:22:39;;;;;;;2.10;1.57;;;;;;;;;;4403956;32;316407;-85
2023/01/20 01:25:07;;;;;;;2.97;1.47;;;;;;;;;;4404843;32;317274;-85
2023/01/20 01:27:33;;;;;;;5.10;1.40;;;;;;;;;;4376990;32;416290;-85
2023/01/20 01:30:00;;;;;;;2.60;1.40;;;;;;;;;;4388250;32;316304;-85
2023/01/20 01:32:28;;;;;;;3.10;1.30;;;;;;;;;;4379039;32;343272;-85
2023/01/20 01:34:55;;;;;;;3.73;2.20;;;;;;;;;;4388619;32;317073;-85
2023/01/20 01:37:22;;;;;;;12.67;4.97;;;;;;;;;;4379854;32;317668;-85
2023/01/20 01:39:49;;;;;;;10.50;4.83;;;;;;;;;;4389563;32;318429;-85
2023/01/20 01:42:17;;;;;;;6.43;3.13;;;;;;;;;;4378906;32;317495;-85
2023/01/20 01:45:20;;;;;;;7.93;4.13;;;;;;;;;;4409632;32;317548;-85
2023/01/20 01:47:51;;;;;;;9.77;4.77;;;;;;;;;;4391936;32;416958;-85
2023/01/20 01:50:22;;;;;;;10.33;5.23;;;;;;;;;;4394328;32;316406;-85
2023/01/20 01:52:52;;;;;;;6.93;4.30;;;;;;;;;;4403282;32;354949;-85
2023/01/20 01:55:22;;;;;;;7.90;4.27;;;;;;;;;;4393328;32;316400;-85
2023/01/20 01:57:50;;;;;;;12.77;6.10;;;;;;;;;;4403090;32;324055;-85
2023/01/20 02:00:17;;;;;;;11.93;5.60;;;;;;;;;;4393239;32;318497;-85
2023/01/20 02:02:45;;;;;;;11.90;4.70;;;;;;;;;;4403344;32;318621;-85
2023/01/20 02:05:15;;;;;;;7.47;3.60;;;;;;;;;;4393026;32;318346;-85
2023/01/20 02:07:45;;;;;;;6.60;3.67;;;;;;;;;;4403181;32;317177;-85
2023/01/20 02:10:15;;;;;;;4.57;3.03;;;;;;;;;;4393906;32;317257;-85
2023/01/20 02:12:46;;;;;;;6.00;3.50;;;;;;;;;;4403157;32;317360;-85
2023/01/20 02:15:16;;;;;;;6.63;3.50;;;;;;;;;;4394367;32;316572;-85
2023/01/20 02:17:58;;;;;;;5.63;3.60;;;;;;;;;;4403278;32;317308;-85
2023/01/20 02:21:00;;;;;;;6.33;3.07;;;;;;;;;;4393196;32;316598;-85
2023/01/20 02:23:50;;;;;;;6.70;3.23;;;;;;;;;;4392761;32;325748;-85
2023/01/20 02:26:37;;;;;;;7.30;4.70;;;;;;;;;;4392913;32;317552;-86
2023/01/20 02:29:38;;;;;;;6.93;6.10;;;;;;;;;;4402887;32;316718;-85
2023/01/20 02:32:14;;;;;;;9.63;5.33;;;;;;;;;;4400759;32;416756;-85
2023/01/20 02:34:47;;;;;;;10.80;5.07;;;;;;;;;;4390186;32;414999;-85
2023/01/20 02:37:18;;;;;;;12.73;4.90;;;;;;;;;;4392723;32;317765;-85
2023/01/20 02:39:56;;;;;;;11.83;5.70;;;;;;;;;;4402028;32;326146;-85
2023/01/20 02:42:27;;;;;;;12.00;5.40;;;;;;;;;;4393042;32;317697;-85
2023/01/20 02:44:59;;;;;;;9.53;6.20;;;;;;;;;;4403742;32;318412;-84
2023/01/20 02:47:33;;;;;;;10.40;5.03;;;;;;;;;;4393897;32;317423;-84
2023/01/20 02:50:08;;;;;;;15.47;6.30;;;;;;;;;;4403562;32;317636;-84
2023/01/20 02:52:38;;;;;;;6.53;4.93;;;;;;;;;;4390774;32;418301;-84
2023/01/20 02:55:08;;;;;;;9.10;4.60;;;;;;;;;;4403488;32;316696;-84
2023/01/20 02:57:40;;;;;;;7.83;4.27;;;;;;;;;;4390728;32;416223;-84
2023/01/20 03:00:12;;;;;;;6.13;4.03;;;;;;;;;;4403403;32;316673;-84
2023/01/20 03:02:42;;;;;;;4.63;3.73;;;;;;;;;;4390788;32;416189;-84
2023/01/20 03:05:15;;;;;;;10.23;3.90;;;;;;;;;;4391736;32;372873;-84
2023/01/20 03:07:45;;;;;;;8.90;3.97;;;;;;;;;;4403404;32;318631;-84
2023/01/20 03:10:16;;;;;;;9.67;3.10;;;;;;;;;;4390250;32;335839;-84
2023/01/20 03:12:48;;;;;;;9.17;4.10;;;;;;;;;;4403242;32;317288;-83
2023/01/20 03:15:16;;;;;;;6.83;4.23;;;;;;;;;;4392266;32;317102;-84
2023/01/20 03:17:44;;;;;;;11.67;4.43;;;;;;;;;;4403261;32;317649;-84
2023/01/20 03:20:12;;;;;;;9.03;4.27;;;;;;;;;;4391945;32;318353;-84
2023/01/20 03:22:39;;;;;;;9.40;3.87;;;;;;;;;;4403422;32;317779;-84
2023/01/20 03:25:08;;;;;;;4.87;3.47;;;;;;;;;;4401857;32;316743;-84
2023/01/20 03:27:35;;;;;;;8.27;3.97;;;;;;;;;;4390241;32;416030;-84
2023/01/20 03:30:01;;;;;;;5.77;4.00;;;;;;;;;;4402899;32;317421;-84
2023/01/20 03:32:30;;;;;;;5.60;3.57;;;;;;;;;;4391965;32;317418;-84
2023/01/20 03:34:59;;;;;;;7.50;4.27;;;;;;;;;;4403253;32;317289;-83
2023/01/20 03:37:26;;;;;;;11.27;5.17;;;;;;;;;;4392374;32;317205;-84
2023/01/20 03:39:53;;;;;;;10.87;5.27;;;;;;;;;;4402613;32;318360;-84
2023/01/20 03:42:29;;;;;;;7.00;5.33;;;;;;;;;;4392897;32;318423;-84
2023/01/20 03:45:02;;;;;;;8.57;4.73;;;;;;;;;;4402816;32;316422;-83
2023/01/20 03:47:46;;;;;;;10.33;4.67;;;;;;;;;;4393080;32;317246;-84
2023/01/20 03:50:25;;;;;;;8.47;4.43;;;;;;;;;;4385415;32;317572;-84
2023/01/20 03:52:55;;;;;;;6.70;4.00;;;;;;;;;;4412989;32;317438;-84
2023/01/20 03:55:26;;;;;;;10.10;4.57;;;;;;;;;;4391088;32;326976;-84
2023/01/20 03:57:58;;;;;;;6.70;3.30;;;;;;;;;;4407064;32;318357;-84
2023/01/20 04:00:27;;;;;;;6.07;3.50;;;;;;;;;;4392870;32;317754;-84
2023/01/20 04:02:58;;;;;;;8.67;3.33;;;;;;;;;;4402607;32;316835;-84
2023/01/20 04:05:28;;;;;;;11.90;5.80;;;;;;;;;;4391650;32;316862;-84
2023/01/20 04:07:57;;;;;;;9.53;4.37;;;;;;;;;;4402405;32;318382;-84
2023/01/20 04:10:27;;;;;;;7.57;3.97;;;;;;;;;;4392494;32;317606;-84
2023/01/20 04:12:54;;;;;;;9.17;4.70;;;;;;;;;;4401837;32;341002;-84
2023/01/20 04:15:23;;;;;;;14.67;7.50;;;;;;;;;;4390048;32;358450;-84
2023/01/20 04:17:50;;;;;;;16.00;7.67;;;;;;;;;;4402380;32;317654;-84
2023/01/20 04:20:17;;;;;;;13.30;8.07;;;;;;;;;;4391102;32;318358;-84
2023/01/20 04:22:50;;;;;;;29.13;16.30;;;;;;;;;;4402400;32;317845;-84
2023/01/20 04:25:24;;;;;;;31.77;15.57;;;;;;;;;;4390464;32;347710;-84
2023/01/20 04:27:51;;;;;;;22.13;13.87;;;;;;;;;;4402484;32;318921;-84
2023/01/20 04:30:18;;;;;;;19.60;11.57;;;;;;;;;;4392262;32;319420;-84
2023/01/20 04:32:45;;;;;;;17.27;10.27;;;;;;;;;;4402335;32;318599;-84
2023/01/20 04:35:14;;;;;;;9.60;6.13;;;;;;;;;;4392229;32;319322;-84
2023/01/20 04:37:41;;;;;;;8.27;5.20;;;;;;;;;;4402317;32;317290;-83
2023/01/20 04:40:11;;;;;;;13.87;5.90;;;;;;;;;;4401280;32;316669;-84
2023/01/20 04:42:38;;;;;;;8.37;5.10;;;;;;;;;;4388474;32;417942;-84
2023/01/20 04:45:06;;;;;;;5.90;4.43;;;;;;;;;;4401066;32;317340;-84
2023/01/20 04:47:34;;;;;;;7.70;5.60;;;;;;;;;;4392800;32;317341;-84
2023/01/20 04:50:00;;;;;;;13.27;5.57;;;;;;;;;;4404080;32;317404;-83
2023/01/20 04:52:27;;;;;;;11.60;8.20;;;;;;;;;;4394026;32;318702;-84
2023/01/20 04:54:54;;;;;;;14.60;8.37;;;;;;;;;;4404967;32;318399;-84
2023/01/20 04:57:22;;;;;;;15.03;11.57;;;;;;;;;;4395090;32;317693;-84
2023/01/20 04:59:49;;;;;;;22.73;15.90;;;;;;;;;;4402748;32;353415;-84
2023/01/20 05:02:16;;;;;;;29.20;18.27;;;;;;;;;;4393763;32;319344;-84
2023/01/20 05:04:44;;;;;;;27.73;18.03;;;;;;;;;;4404999;32;319860;-84
2023/01/20 05:07:10;;;;;;;19.20;12.97;;;;;;;;;;4393676;32;320015;-85
2023/01/20 05:09:40;;;;;;;17.50;14.63;;;;;;;;;;4403316;32;319558;-85
2023/01/20 05:12:07;;;;;;;20.47;12.00;;;;;;;;;;4404819;32;319525;-84
2023/01/20 05:14:35;;;;;;;19.17;11.03;;;;;;;;;;4390713;32;418222;-84
2023/01/20 05:17:01;;;;;;;15.30;10.80;;;;;;;;;;4404666;32;319400;-84
2023/01/20 05:19:28;;;;;;;16.30;10.43;;;;;;;;;;4393594;32;318872;-84
2023/01/20 05:21:55;;;;;;;15.67;9.30;;;;;;;;;;4404660;32;319428;-84
2023/01/20 05:24:23;;;;;;;10.40;7.07;;;;;;;;;;4394481;32;317721;-84
2023/01/20 05:26:50;;;;;;;9.97;6.73;;;;;;;;;;4404504;32;318641;-85
2023/01/20 05:29:17;;;;;;;8.27;5.67;;;;;;;;;;4394220;32;317168;-84
2023/01/20 05:31:47;;;;;;;5.07;2.97;;;;;;;;;;4403351;32;316736;-84
2023/01/20 05:34:15;;;;;;;8.43;2.80;;;;;;;;;;4394353;32;316616;-85
2023/01/20 05:36:42;;;;;;;4.27;2.57;;;;;;;;;;4404140;32;317592;-85
2023/01/20 05:39:09;;;;;;;5.43;2.43;;;;;;;;;;4400103;32;317227;-87
2023/01/20 05:41:35;;;;;;;3.97;2.40;;;;;;;;;;4403020;32;316931;-85
2023/01/20 05:44:02;;;;;;;3.90;2.30;;;;;;;;;;4404117;32;317227;-86
2023/01/20 05:46:29;;;;;;;3.67;2.10;;;;;;;;;;4394213;32;317631;-86
2023/01/20 05:48:57;;;;;;;3.87;2.30;;;;;;;;;;4403409;32;317144;-86
2023/01/20 05:51:24;;;;;;;3.93;2.53;;;;;;;;;;4394308;32;317430;-86
2023/01/20 05:53:50;;;;;;;3.33;2.03;;;;;;;;;;4402789;32;316911;-85
2023/01/20 05:56:17;;;;;;;4.47;2.33;;;;;;;;;;4392294;32;332447;-86
2023/01/20 05:58:44;;;;;;;4.70;3.00;;;;;;;;;;4403729;32;317561;-85
2023/01/20 06:01:13;;;;;;;5.33;3.50;;;;;;;;;;4393698;32;317266;-86
2023/01/20 06:03:40;;;;;;;7.20;3.63;;;;;;;;;;4402271;32;316380;-86
2023/01/20 06:06:13;;;;;;;5.90;3.20;;;;;;;;;;4403478;32;317295;-86
2023/01/20 06:08:39;;;;;;;5.17;3.67;;;;;;;;;;4389153;32;416066;-86
2023/01/20 06:11:06;;;;;;;4.93;3.63;;;;;;;;;;4403098;32;328430;-86
2023/01/20 06:13:34;;;;;;;5.93;2.90;;;;;;;;;;4393465;32;316604;-86
2023/01/20 06:16:00;;;;;;;6.63;2.83;;;;;;;;;;4402378;32;317062;-86
2023/01/20 06:18:29;;;;;;;8.73;3.33;;;;;;;;;;4392324;32;317829;-88
2023/01/20 06:20:57;;;;;;;4.83;3.03;;;;;;;;;;4405341;32;317150;-86
2023/01/20 06:23:28;;;;;;;6.30;2.97;;;;;;;;;;4394250;32;316674;-85
2023/01/20 06:25:59;;;;;;;6.77;4.17;;;;;;;;;;4403059;32;317120;-85
2023/01/20 06:28:26;;;;;;;5.70;3.67;;;;;;;;;;4393211;32;317354;-86
2023/01/20 06:30:59;;;;;;;5.67;4.03;;;;;;;;;;4402308;32;317301;-86
2023/01/20 06:33:26;;;;;;;5.20;3.37;;;;;;;;;;4393200;32;317523;-86
2023/01/20 06:35:54;;;;;;;11.80;3.63;;;;;;;;;;4402235;32;316450;-86
2023/01/20 06:38:20;;;;;;;6.63;2.77;;;;;;;;;;4390695;32;317739;-86
2023/01/20 06:40:48;;;;;;;5.83;3.23;;;;;;;;;;4402517;32;324852;-86
2023/01/20 06:43:15;;;;;;;5.90;4.27;;;;;;;;;;4390867;32;350053;-86
2023/01/20 06:45:42;;;;;;;4.53;3.30;;;;;;;;;;4402750;32;316525;-86
2023/01/20 06:48:09;;;;;;;5.57;3.37;;;;;;;;;;4393237;32;317403;-86
2023/01/20 06:50:36;;;;;;;6.40;4.23;;;;;;;;;;4402871;32;317074;-86
2023/01/20 06:53:02;;;;;;;7.37;4.43;;;;;;;;;;4401776;32;317313;-85
2023/01/20 06:55:29;;;;;;;4.83;3.77;;;;;;;;;;4393300;32;317254;-86
2023/01/20 06:57:57;;;;;;;3.83;3.00;;;;;;;;;;4402874;32;317472;-86
2023/01/20 07:00:24;;;;;;;5.20;3.97;;;;;;;;;;4391539;32;317462;-86
2023/01/20 07:02:51;;;;;;;7.87;5.03;;;;;;;;;;4403023;32;317437;-86
2023/01/20 07:05:18;;;;;;;10.97;5.07;;;;;;;;;;4392416;32;316544;-86
2023/01/20 07:07:45;;;;;;;8.90;4.77;;;;;;;;;;4401930;32;317602;-86
2023/01/20 07:10:12;;;;;;;8.20;5.20;;;;;;;;;;4390752;32;317183;-86
2023/01/20 07:12:39;;;;;;;7.80;4.70;;;;;;;;;;4402158;32;317133;-87
2023/01/20 07:15:11;;;;;;;5.70;4.23;;;;;;;;;;4401876;32;316885;-84
2023/01/20 07:17:38;;;;;;;8.77;5.90;;;;;;;;;;4388501;32;416405;-86
2023/01/20 07:20:05;;;;;;;8.53;4.47;;;;;;;;;;4401073;32;317189;-87
2023/01/20 07:22:34;;;;;;;6.77;4.33;;;;;;;;;;4392555;32;317392;-88
2023/01/20 07:25:01;;;;;;;7.73;5.17;;;;;;;;;;4401985;32;317661;-86
2023/01/20 07:27:28;;;;;;;7.37;4.60;;;;;;;;;;4392037;32;316530;-87
2023/01/20 07:29:57;;;;;;;7.63;4.63;;;;;;;;;;4400265;32;316546;-86
2023/01/20 07:32:30;;;;;;;8.23;4.70;;;;;;;;;;4391863;32;316533;-86
2023/01/20 07:34:56;;;;;;;7.40;3.90;;;;;;;;;;4400462;32;316519;-87
2023/01/20 07:37:23;;;;;;;7.40;5.17;;;;;;;;;;4384469;32;336437;-87
2023/01/20 07:39:50;;;;;;;16.57;10.13;;;;;;;;;;4412178;32;316426;-86
2023/01/20 07:42:17;;;;;;;16.37;11.87;;;;;;;;;;4391232;32;318622;-86
2023/01/20 07:44:43;;;;;;;28.33;18.70;;;;;;;;;;4400608;32;318466;-87
2023/01/20 07:47:10;;;;;;;32.40;22.07;;;;;;;;;;4389508;32;400568;-86
2023/01/20 07:49:38;;;;;;;25.33;16.27;;;;;;;;;;4401910;32;318496;-86
2023/01/20 07:52:05;;;;;;;20.77;16.27;;;;;;;;;;4401563;32;318425;-86
2023/01/20 07:54:32;;;;;;;21.97;14.20;;;;;;;;;;4391517;32;319712;-86
2023/01/20 07:56:58;;;;;;;22.30;14.47;;;;;;;;;;4400054;32;319326;-84
2023/01/20 07:59:27;;;;;;;21.63;14.90;;;;;;;;;;4388619;32;359096;-86
2023/01/20 08:01:54;;;;;;;30.73;18.03;;;;;;;;;;4400826;32;319407;-86
2023/01/20 08:04:21;;;;;;;25.77;13.93;;;;;;;;;;4391141;32;319125;-86
2023/01/20 08:06:49;;;;;;;22.47;15.37;;;;;;;;;;4400868;32;319458;-85
2023/01/20 08:09:16;;;;;;;26.90;16.97;;;;;;;;;;4390662;32;318685;-87
2023/01/20 08:11:43;;;;;;;21.57;15.83;;;;;;;;;;4399890;32;318568;-86
2023/01/20 08:14:12;;;;;;;15.97;9.93;;;;;;;;;;4390299;32;319570;-87
2023/01/20 08:16:39;;;;;;;12.17;8.37;;;;;;;;;;4401542;32;317714;-85
2023/01/20 08:19:05;;;;;;;14.50;9.13;;;;;;;;;;4400355;32;317698;-84
2023/01/20 08:21:33;;;;;;;16.73;10.87;;;;;;;;;;4390001;32;335420;-86
2023/01/20 08:24:04;;;;;;;14.77;10.50;;;;;;;;;;4400931;32;318480;-84
2023/01/20 08:26:32;;;;;;;15.57;10.80;;;;;;;;;;4390320;32;318551;-86
2023/01/20 08:29:03;;;;;;;17.27;12.23;;;;;;;;;;4400411;32;318334;-86
2023/01/20 08:31:31;;;;;;;17.27;12.57;;;;;;;;;;4390161;32;327876;-83
2023/01/20 08:33:58;;;;;;;15.37;11.07;;;;;;;;;;4399684;32;319082;-86
2023/01/20 08:36:26;;;;;;;14.57;10.67;;;;;;;;;;4389939;32;319249;-86
2023/01/20 08:38:54;;;;;;;19.23;13.57;;;;;;;;;;4401000;32;318568;-85
2023/01/20 08:41:25;;;;;;;12.77;9.60;;;;;;;;;;4390188;32;319399;-85
2023/01/20 08:43:52;;;;;;;14.80;10.90;;;;;;;;;;4400387;32;317884;-84
2023/01/20 08:46:20;;;;;;;15.03;9.80;;;;;;;;;;4390065;32;319409;-86
2023/01/20 08:48:48;;;;;;;26.23;16.03;;;;;;;;;;4400935;32;317635;-85
2023/01/20 08:51:17;;;;;;;31.43;21.27;;;;;;;;;;4391256;32;319452;-85
2023/01/20 08:53:44;;;;;;;35.37;26.27;;;;;;;;;;4400936;32;319009;-85
2023/01/20 08:56:12;;;;;;;35.73;23.30;;;;;;;;;;4391520;32;319267;-85
2023/01/20 08:58:40;;;;;;;37.27;26.23;;;;;;;;;;4400388;32;319554;-85
2023/01/20 09:01:12;;;;;;;50.90;29.73;;;;;;;;;;4402281;32;318690;-85
2023/01/20 09:03:39;;;;;;;643.77;337.53;;;;;;;;;;4387247;32;419164;-85
2023/01/20 09:06:07;;;;;;;559.70;290.57;;;;;;;;;;4401630;32;320619;-85
2023/01/20 09:08:34;;;;;;;264.63;120.50;;;;;;;;;;4388074;32;420627;-85
2023/01/20 09:11:08;;;;;;;293.17;135.70;;;;;;;;;;4401238;32;320854;-85
2023/01/20 09:13:35;;;;;;;92.53;51.53;;;;;;;;;;4386304;32;421776;-85
2023/01/20 09:16:04;;;;;;;51.60;35.17;;;;;;;;;;4400327;32;319466;-85
2023/01/20 09:18:31;;;;;;;59.30;38.20;;;;;;;;;;4390661;32;319615;-85
2023/01/20 09:20:58;;;;;;;68.30;39.73;;;;;;;;;;4400497;32;319452;-85
2023/01/20 09:23:25;;;;;;;47.27;31.80;;;;;;;;;;4390883;32;318605;-85
2023/01/20 09:25:52;;;;;;;51.30;33.43;;;;;;;;;;4400312;32;319433;-85
2023/01/20 09:28:18;;;;;;;48.17;29.97;;;;;;;;;;4390081;32;319000;-86
2023/01/20 09:30:45;;;;;;;63.93;30.80;;;;;;;;;;4401385;32;318741;-85
2023/01/20 09:33:13;;;;;;;35.50;22.77;;;;;;;;;;4391103;32;318697;-86
2023/01/20 09:35:40;;;;;;;131.83;51.77;;;;;;;;;;4402646;32;318845;-85
2023/01/20 09:44:00;;;;;;;100.63;52.37;;;;;;;;;;4391253;32;390004;-85
2023/01/20 09:46:36;;;;;;;200.57;99.73;;;;;;;;;;4394530;32;320744;-84
2023/01/20 09:55:00;;;;;;;53.27;33.43;;;;;;;;;;4391544;32;389818;-84
2023/01/20 09:57:31;;;;;;;57.73;40.87;;;;;;;;;;4393900;32;318915;-84
2023/01/20 10:00:03;;;;;;;46.10;32.30;;;;;;;;;;4402449;32;318577;-84
2023/01/20 10:02:34;;;;;;;35.97;23.97;;;;;;;;;;4393756;32;319473;-84
2023/01/20 10:05:10;;;;;;;54.67;34.53;;;;;;;;;;4404070;32;319440;-84
2023/01/20 10:07:42;;;;;;;169.30;97.20;;;;;;;;;;4390949;32;419008;-83
2023/01/20 10:10:16;;;;;;;56.90;32.63;;;;;;;;;;4393412;32;319534;-84
2023/01/20 10:12:47;;;;;;;128.70;60.10;;;;;;;;;;4402354;32;356554;-84
2023/01/20 10:15:20;;;;;;;28.53;17.10;;;;;;;;;;4393607;32;319847;-84
2023/01/20 10:17:53;;;;;;;47.60;24.37;;;;;;;;;;4403285;32;318351;-84
2023/01/20 10:20:28;;;;;;;20.90;11.30;;;;;;;;;;4391512;32;351394;-84
2023/01/20 10:23:03;;;;;;;32.27;16.20;;;;;;;;;;4401872;32;318458;-84
2023/01/20 10:25:34;;;;;;;44.57;19.30;;;;;;;;;;4392406;32;319224;-84
2023/01/20 10:28:07;;;;;;;28.33;16.30;;;;;;;;;;4401056;32;353114;-84
2023/01/20 10:30:36;;;;;;;48.47;20.67;;;;;;;;;;4389038;32;419297;-84
2023/01/20 10:33:08;;;;;;;54.43;19.97;;;;;;;;;;4402987;32;318501;-84
2023/01/20 10:35:39;;;;;;;14.40;7.23;;;;;;;;;;4390528;32;418320;-84
2023/01/20 10:38:08;;;;;;;18.80;7.60;;;;;;;;;;4402994;32;318192;-86
2023/01/20 10:40:41;;;;;;;49.30;16.00;;;;;;;;;;4390404;32;418790;-84
2023/01/20 10:43:11;;;;;;;13.00;6.03;;;;;;;;;;4403240;32;320043;-84
2023/01/20 10:45:50;;;;;;;8.00;4.47;;;;;;;;;;4390752;32;412224;-84
2023/01/20 10:48:30;;;;;;;32.97;12.17;;;;;;;;;;4393731;32;316349;-85
2023/01/20 10:51:06;;;;;;;10.53;3.97;;;;;;;;;;4403417;32;319121;-84
2023/01/20 10:54:00;;;;;;;8.83;5.17;;;;;;;;;;4392354;32;318749;-84
2023/01/20 10:56:42;;;;;;;9.40;5.50;;;;;;;;;;4392244;32;328130;-84
2023/01/20 10:59:13;;;;;;;10.37;5.97;;;;;;;;;;4392862;32;316590;-85
2023/01/20 11:01:41;;;;;;;51.77;19.20;;;;;;;;;;4403342;32;318246;-84
2023/01/20 11:04:18;;;;;;;16.53;10.70;;;;;;;;;;4401339;32;319431;-85
2023/01/20 11:06:50;;;;;;;158.57;58.20;;;;;;;;;;4388424;32;419205;-85
2023/01/20 11:09:24;;;;;;;65.93;27.63;;;;;;;;;;4391774;32;320483;-84
2023/01/20 11:11:52;;;;;;;27.03;13.70;;;;;;;;;;4403237;32;318781;-86
2023/01/20 11:14:19;;;;;;;21.30;16.47;;;;;;;;;;4391684;32;319359;-85
2023/01/20 11:16:50;;;;;;;37.57;25.67;;;;;;;;;;4402688;32;318588;-84
2023/01/20 11:19:17;;;;;;;42.07;30.63;;;;;;;;;;4391819;32;318588;-85
2023/01/20 11:21:44;;;;;;;77.13;38.67;;;;;;;;;;4401869;32;318358;-83
2023/01/20 11:24:40;;;;;;;64.40;41.50;;;;;;;;;;4392701;32;330906;-84
2023/01/20 11:27:14;;;;;;;228.83;93.90;;;;;;;;;;4403466;32;319467;-83
2023/01/20 11:29:43;;;;;;;82.00;50.40;;;;;;;;;;4388359;32;420564;-83
2023/01/20 11:32:34;;;;;;;90.80;65.67;;;;;;;;;;4389905;32;379987;-84
2023/01/20 11:35:18;;;;;;;70.30;46.83;;;;;;;;;;4401983;32;319357;-83
2023/01/20 11:37:44;;;;;;;38.77;27.70;;;;;;;;;;4389640;32;419027;-83
2023/01/20 11:40:24;;;;;;;52.70;33.37;;;;;;;;;;4392732;32;319394;-84
2023/01/20 11:42:52;;;;;;;53.13;35.47;;;;;;;;;;4401518;32;319488;-83
2023/01/20 11:45:31;;;;;;;50.30;33.13;;;;;;;;;;4391035;32;318717;-84
2023/01/20 11:48:03;;;;;;;23.53;15.77;;;;;;;;;;4401152;32;319693;-83
2023/01/20 11:50:33;;;;;;;10.37;6.53;;;;;;;;;;4391472;32;319248;-83
2023/01/20 11:53:18;;;;;;;8.60;5.70;;;;;;;;;;4394995;32;318305;-83
2023/01/20 11:55:52;;;;;;;9.47;4.20;;;;;;;;;;4387675;32;416563;-83
2023/01/20 11:58:20;;;;;;;26.53;12.57;;;;;;;;;;4391797;32;317286;-84
2023/01/20 12:00:49;;;;;;;10.17;7.33;;;;;;;;;;4402243;32;318610;-84
2023/01/20 12:03:34;;;;;;;13.40;7.97;;;;;;;;;;4391218;32;318589;-83
2023/01/20 12:06:06;;;;;;;16.57;8.77;;;;;;;;;;4401381;32;318458;-83
2023/01/20 12:08:45;;;;;;;14.27;8.23;;;;;;;;;;4392431;32;318317;-83
2023/01/20 12:11:16;;;;;;;14.83;7.37;;;;;;;;;;4391361;32;317513;-83
2023/01/20 12:16:38;;;;;;;16.43;11.57;;;;;;;;;;4388858;32;390014;-83
2023/01/20 12:19:12;;;;;;;11.60;7.90;;;;;;;;;;4400725;32;318775;-83
2023/01/20 12:21:43;;;;;;;9.33;5.03;;;;;;;;;;4389516;32;416003;-83
2023/01/20 12:24:16;;;;;;;6.80;4.60;;;;;;;;;;4392226;32;317184;-83
2023/01/20 12:26:44;;;;;;;8.17;4.70;;;;;;;;;;4401847;32;327802;-83
2023/01/20 12:29:19;;;;;;;5.93;4.23;;;;;;;;;;4390792;32;317653;-83
2023/01/20 12:31:47;;;;;;;4.90;3.57;;;;;;;;;;4401149;32;317279;-83
2023/01/20 12:34:17;;;;;;;4.90;3.67;;;;;;;;;;4391899;32;317178;-83
2023/01/20 12:36:59;;;;;;;6.80;4.80;;;;;;;;;;4401753;32;316607;-84
2023/01/20 12:39:38;;;;;;;8.73;6.07;;;;;;;;;;4391270;32;318079;-84
2023/01/20 12:42:42;;;;;;;15.30;9.40;;;;;;;;;;4400964;32;317499;-83
2023/01/20 12:45:18;;;;;;;9.63;6.13;;;;;;;;;;4397949;32;416308;-84
2023/01/20 12:47:59;;;;;;;15.30;11.27;;;;;;;;;;4387995;32;415505;-83
2023/01/20 12:50:44;;;;;;;7.47;5.47;;;;;;;;;;4392068;32;319396;-83
2023/01/20 12:53:29;;;;;;;10.20;6.53;;;;;;;;;;4389702;32;323053;-83
2023/01/20 12:56:04;;;;;;;15.07;7.67;;;;;;;;;;4402165;32;317455;-84
2023/01/20 12:58:46;;;;;;;13.73;9.27;;;;;;;;;;4392061;32;318256;-84
2023/01/20 13:01:39;;;;;;;14.50;10.10;;;;;;;;;;4392255;32;318883;-84
2023/01/20 13:04:54;;;;;;;19.67;13.23;;;;;;;;;;4401784;32;318739;-84
2023/01/20 13:07:50;;;;;;;11.10;7.83;;;;;;;;;;4368229;32;418769;-84
2023/01/20 13:10:28;;;;;;;13.77;10.07;;;;;;;;;;4387380;32;343286;-84
2023/01/20 13:13:00;;;;;;;23.80;14.53;;;;;;;;;;4404683;32;318603;-84
2023/01/20 13:15:30;;;;;;;23.60;15.87;;;;;;;;;;4392718;32;345674;-84
2023/01/20 13:18:27;;;;;;;29.00;18.37;;;;;;;;;;4404402;32;318917;-84
2023/01/20 13:20:55;;;;;;;36.80;23.47;;;;;;;;;;4384295;32;419878;-84
2023/01/20 13:23:26;;;;;;;39.17;23.27;;;;;;;;;;4393449;32;318538;-84
2023/01/20 13:25:54;;;;;;;12.53;9.93;;;;;;;;;;4403337;32;319179;-84
2023/01/20 13:28:23;;;;;;;19.77;13.17;;;;;;;;;;4392339;32;359237;-84
2023/01/20 13:30:53;;;;;;;21.37;14.57;;;;;;;;;;4403242;32;319675;-84
2023/01/20 13:33:35;;;;;;;16.63;11.73;;;;;;;;;;4393079;32;322723;-84
2023/01/20 13:36:16;;;;;;;21.67;13.63;;;;;;;;;;4404569;32;319274;-84
2023/01/20 13:38:43;;;;;;;16.20;12.23;;;;;;;;;;4391454;32;419498;-84
2023/01/20 13:41:10;;;;;;;9.30;7.17;;;;;;;;;;4394334;32;318661;-84
2023/01/20 13:43:48;;;;;;;49.83;41.43;;;;;;;;;;4404293;32;317241;-84
2023/01/20 13:46:48;;;;;;;24.87;18.20;;;;;;;;;;4393334;32;319382;-84
2023/01/20 13:49:46;;;;;;;39.00;25.70;;;;;;;;;;4393183;32;319532;-84
2023/01/20 13:52:13;;;;;;;37.13;23.47;;;;;;;;;;4394125;32;319403;-85
2023/01/20 13:54:45;;;;;;;29.70;20.23;;;;;;;;;;4401906;32;347654;-84
2023/01/20 13:57:35;;;;;;;29.07;18.70;;;;;;;;;;4393979;32;319245;-84
2023/01/20 14:00:13;;;;;;;26.70;18.77;;;;;;;;;;4403802;32;318688;-86
2023/01/20 14:02:41;;;;;;;24.27;18.90;;;;;;;;;;4390160;32;419385;-85
2023/01/20 14:05:23;;;;;;;27.07;18.20;;;;;;;;;;4403938;32;319413;-85
2023/01/20 14:07:49;;;;;;;25.70;15.13;;;;;;;;;;4390919;32;419272;-85
2023/01/20 14:10:18;;;;;;;52.83;32.87;;;;;;;;;;4393726;32;318653;-84
2023/01/20 14:12:44;;;;;;;23.87;14.47;;;;;;;;;;4403887;32;319674;-84
2023/01/20 14:15:24;;;;;;;21.67;13.73;;;;;;;;;;4393791;32;318779;-84
2023/01/20 14:17:55;;;;;;;23.80;14.10;;;;;;;;;;4403776;32;318609;-85
2023/01/20 14:20:23;;;;;;;20.67;14.40;;;;;;;;;;4393397;32;319410;-85
2023/01/20 14:22:50;;;;;;;22.30;15.43;;;;;;;;;;4403655;32;319185;-84
2023/01/20 14:25:23;;;;;;;26.03;15.20;;;;;;;;;;4393575;32;319335;-85
2023/01/20 14:27:49;;;;;;;25.23;14.90;;;;;;;;;;4403465;32;319270;-84
2023/01/20 14:30:21;;;;;;;20.30;12.70;;;;;;;;;;4393474;32;319609;-84
2023/01/20 14:32:48;;;;;;;24.57;14.53;;;;;;;;;;4402117;32;318439;-84
2023/01/20 14:35:19;;;;;;;22.10;15.70;;;;;;;;;;4392282;32;319559;-84
2023/01/20 14:37:49;;;;;;;30.73;18.20;;;;;;;;;;4403701;32;318452;-84
2023/01/20 14:40:23;;;;;;;31.53;18.40;;;;;;;;;;4391985;32;318835;-84
2023/01/20 14:42:57;;;;;;;39.07;21.47;;;;;;;;;;4402391;32;318566;-84
2023/01/20 14:45:27;;;;;;;38.30;23.03;;;;;;;;;;4391868;32;319415;-84
2023/01/20 14:47:55;;;;;;;46.57;23.83;;;;;;;;;;4406444;32;318680;-84
2023/01/20 14:50:23;;;;;;;37.73;22.93;;;;;;;;;;4393415;32;319737;-84
2023/01/20 14:52:50;;;;;;;38.73;24.10;;;;;;;;;;4402008;32;318473;-84